Time;durP1;ratioP1;P1;durP2;ratioP2;P2;SDS_P1;SDS_P2;PMS_P1;PMS_P2;Temp;Humidity;BMP_temperature;BMP_pressure;BME280_temperature;BME280_humidity;BME280_pressure;Samples;Min_cycle;Max_cycle;Signal;HPM_P1;HPM_P2
2023/12/27 00:00:48;;;;;;;1.10;1.00;;;2.50;99.90;;;;;;5113853;28;20118;-74
2023/12/27 00:03:13;;;;;;;1.25;1.15;;;2.50;99.90;;;;;;5112566;28;20039;-73
2023/12/27 00:05:39;;;;;;;1.05;0.98;;;2.40;99.90;;;;;;5113689;28;20500;-73
2023/12/27 00:08:05;;;;;;;1.20;1.10;;;2.40;99.90;;;;;;5113809;28;20078;-72
2023/12/27 00:10:31;;;;;;;1.20;1.10;;;2.40;99.90;;;;;;5113663;28;20079;-75
2023/12/27 00:12:56;;;;;;;1.10;1.00;;;2.30;99.90;;;;;;5113646;28;20500;-74
2023/12/27 00:15:22;;;;;;;1.20;1.10;;;2.30;99.90;;;;;;5113504;28;20047;-75
2023/12/27 00:17:47;;;;;;;1.10;1.00;;;2.30;99.90;;;;;;5113507;28;20028;-72
2023/12/27 00:20:13;;;;;;;1.20;1.10;;;2.30;99.90;;;;;;5114263;28;20051;-73
2023/12/27 00:22:40;;;;;;;1.33;1.23;;;2.30;99.90;;;;;;5116274;28;20459;-73
2023/12/27 00:25:06;;;;;;;;;;;2.30;99.90;;;;;;5117622;28;20095;-72
2023/12/27 00:27:31;;;;;;;1.10;1.00;;;2.20;99.90;;;;;;5117013;28;19915;-73
2023/12/27 00:29:57;;;;;;;1.20;1.10;;;2.20;99.90;;;;;;5117382;27;20031;-74
2023/12/27 00:32:22;;;;;;;1.10;1.00;;;2.20;99.90;;;;;;5117039;28;20095;-73
2023/12/27 00:34:49;;;;;;;1.10;1.00;;;2.20;99.90;;;;;;5117008;28;20035;-75
2023/12/27 00:37:15;;;;;;;1.10;1.00;;;2.20;99.90;;;;;;5117024;28;20082;-73
2023/12/27 00:39:41;;;;;;;1.10;1.00;;;2.10;99.90;;;;;;5117385;28;20511;-72
2023/12/27 00:42:06;;;;;;;1.20;1.10;;;2.10;99.90;;;;;;5116928;28;20085;-75
2023/12/27 00:44:32;;;;;;;1.10;1.00;;;2.10;99.90;;;;;;5116940;28;20168;-75
2023/12/27 00:46:57;;;;;;;1.00;1.00;;;2.10;99.90;;;;;;5116870;28;20375;-73
2023/12/27 00:49:23;;;;;;;1.10;1.00;;;2.10;99.90;;;;;;5116737;28;20043;-75
2023/12/27 00:51:49;;;;;;;1.10;1.00;;;2.10;99.90;;;;;;5116670;28;20042;-74
2023/12/27 00:54:14;;;;;;;1.10;1.00;;;2.00;99.90;;;;;;5116859;28;20070;-73
2023/12/27 00:56:40;;;;;;;1.10;1.00;;;2.10;99.90;;;;;;5116576;28;20047;-74
2023/12/27 00:59:06;;;;;;;1.20;1.10;;;2.00;99.90;;;;;;5115458;28;20142;-75
2023/12/27 01:01:32;;;;;;;1.10;1.00;;;2.60;99.90;;;;;;5116586;28;20423;-74
2023/12/27 01:03:57;;;;;;;1.10;1.00;;;2.00;99.90;;;;;;5116474;28;20071;-73
2023/12/27 01:06:23;;;;;;;1.10;1.00;;;1.90;99.90;;;;;;5116483;28;20070;-72
2023/12/27 01:08:49;;;;;;;1.10;1.00;;;1.90;99.90;;;;;;5116436;28;20047;-73
2023/12/27 01:11:14;;;;;;;1.10;1.00;;;1.90;99.90;;;;;;5116353;28;20058;-73
2023/12/27 01:13:40;;;;;;;1.10;1.00;;;1.90;99.90;;;;;;5116316;28;20471;-74
2023/12/27 01:16:06;;;;;;;1.30;1.20;;;2.80;99.90;;;;;;5116333;28;20082;-73
2023/12/27 01:18:31;;;;;;;1.20;1.10;;;1.80;99.90;;;;;;5116119;28;20044;-73
2023/12/27 01:20:57;;;;;;;1.10;1.00;;;1.80;99.90;;;;;;5116139;28;20054;-73
2023/12/27 01:23:23;;;;;;;1.10;1.00;;;1.80;99.90;;;;;;5116572;28;20032;-73
2023/12/27 01:25:49;;;;;;;1.10;1.00;;;1.80;99.90;;;;;;5116043;28;20035;-75
2023/12/27 01:28:14;;;;;;;1.20;1.10;;;1.70;99.90;;;;;;5116044;28;20039;-73
2023/12/27 01:30:40;;;;;;;1.20;1.10;;;1.70;99.90;;;;;;5115910;28;20076;-73
2023/12/27 01:33:06;;;;;;;1.20;1.10;;;1.70;99.90;;;;;;5114724;28;20040;-72
2023/12/27 01:35:31;;;;;;;1.13;1.02;;;1.70;99.90;;;;;;5115869;28;20043;-73
2023/12/27 01:37:57;;;;;;;1.20;1.10;;;1.60;99.90;;;;;;5116252;28;20048;-73
2023/12/27 01:40:22;;;;;;;1.10;1.00;;;1.60;99.90;;;;;;5115755;28;20437;-73
2023/12/27 01:42:48;;;;;;;1.20;1.10;;;1.60;99.90;;;;;;5114856;28;20069;-73
2023/12/27 01:45:13;;;;;;;1.10;1.00;;;1.60;99.90;;;;;;5115694;28;20050;-73
2023/12/27 01:47:39;;;;;;;1.20;1.10;;;1.60;99.90;;;;;;5115695;28;20048;-74
2023/12/27 01:50:09;;;;;;;1.10;1.00;;;1.50;99.90;;;;;;5115523;28;20077;-74
2023/12/27 01:52:35;;;;;;;1.10;1.00;;;1.60;99.90;;;;;;5116001;28;20085;-73
2023/12/27 01:55:01;;;;;;;1.10;1.00;;;1.50;99.90;;;;;;5115814;28;20039;-74
2023/12/27 01:57:26;;;;;;;1.10;1.00;;;1.50;99.90;;;;;;5115340;28;20100;-72
2023/12/27 01:59:52;;;;;;;1.30;1.20;;;1.80;99.90;;;;;;5115395;28;20463;-72
2023/12/27 02:02:18;;;;;;;1.20;1.10;;;1.50;99.90;;;;;;5115361;28;20043;-75
2023/12/27 02:04:44;;;;;;;1.10;1.00;;;1.50;99.90;;;;;;5115299;28;20081;-75
2023/12/27 02:07:10;;;;;;;1.20;1.10;;;1.50;99.90;;;;;;5115777;28;20050;-74
2023/12/27 02:09:37;;;;;;;1.10;1.00;;;1.50;99.90;;;;;;5115185;28;20035;-74
2023/12/27 02:12:02;;;;;;;1.10;1.00;;;1.50;99.90;;;;;;5115108;28;20043;-75
2023/12/27 02:14:28;;;;;;;1.08;0.98;;;1.40;99.90;;;;;;5115373;27;20479;-73
2023/12/27 02:16:54;;;;;;;1.20;1.10;;;1.40;99.90;;;;;;5114863;28;20478;-73
2023/12/27 02:19:21;;;;;;;1.20;1.10;;;1.40;99.90;;;;;;5115086;28;20082;-73
2023/12/27 02:21:48;;;;;;;;;;;1.40;99.90;;;;;;5115392;27;20035;-72
2023/12/27 02:24:17;;;;;;;1.20;1.10;;;1.30;99.90;;;;;;5114857;28;19964;-72
2023/12/27 02:26:43;;;;;;;1.20;1.10;;;1.30;99.90;;;;;;5114931;28;20075;-72
2023/12/27 02:29:09;;;;;;;1.20;1.10;;;1.30;99.90;;;;;;5114861;28;20074;-73
2023/12/27 02:31:35;;;;;;;2.50;2.28;;;1.30;99.90;;;;;;5114804;28;20043;-73
2023/12/27 02:34:00;;;;;;;1.35;1.25;;;1.30;99.90;;;;;;5114808;28;20348;-73
2023/12/27 02:36:26;;;;;;;1.20;1.10;;;1.30;99.90;;;;;;5114783;28;20047;-73
2023/12/27 02:38:51;;;;;;;1.20;1.10;;;1.20;99.90;;;;;;5115117;28;20092;-73
2023/12/27 02:41:17;;;;;;;1.10;1.00;;;1.20;99.90;;;;;;5114882;28;20039;-73
2023/12/27 02:43:43;;;;;;;1.20;1.10;;;1.20;99.90;;;;;;5114520;28;20129;-72
2023/12/27 02:46:08;;;;;;;1.10;1.00;;;1.20;99.90;;;;;;5114197;28;20051;-73
2023/12/27 02:48:34;;;;;;;1.10;1.00;;;1.20;99.90;;;;;;5114423;28;20044;-72
2023/12/27 02:50:59;;;;;;;1.10;1.00;;;1.20;99.90;;;;;;5114907;28;20035;-73
2023/12/27 02:53:25;;;;;;;1.10;1.00;;;1.10;99.90;;;;;;5114484;28;20092;-72
2023/12/27 02:55:51;;;;;;;1.20;1.10;;;1.20;99.90;;;;;;5114502;28;20035;-72
2023/12/27 02:58:16;;;;;;;1.20;1.10;;;1.20;99.90;;;;;;5114407;28;20447;-73
2023/12/27 03:00:45;;;;;;;1.20;1.10;;;1.20;99.90;;;;;;5114368;28;20118;-74
2023/12/27 03:03:14;;;;;;;1.10;1.00;;;1.40;99.90;;;;;;5114238;28;20159;-75
2023/12/27 03:05:40;;;;;;;1.20;1.10;;;1.20;99.90;;;;;;5114253;28;20383;-74
2023/12/27 03:08:05;;;;;;;1.10;1.00;;;1.30;99.90;;;;;;5114236;28;20039;-73
2023/12/27 03:10:31;;;;;;;1.10;1.00;;;1.30;99.90;;;;;;5114254;28;20044;-73
2023/12/27 03:12:57;;;;;;;1.30;1.20;;;1.30;99.90;;;;;;5114089;28;20047;-74
2023/12/27 03:15:22;;;;;;;1.10;1.00;;;1.30;99.90;;;;;;5114101;28;20043;-72
2023/12/27 03:17:48;;;;;;;1.10;1.00;;;1.40;99.90;;;;;;5114121;28;20455;-74
2023/12/27 03:20:14;;;;;;;1.20;1.10;;;1.50;99.90;;;;;;5114677;28;20056;-71
2023/12/27 03:22:39;;;;;;;1.10;1.00;;;1.40;99.90;;;;;;5105580;28;20035;-73
2023/12/27 03:25:06;;;;;;;1.10;1.00;;;1.40;99.90;;;;;;5093790;28;20074;-73
2023/12/27 03:27:32;;;;;;;1.20;1.10;;;1.40;99.90;;;;;;5093801;28;20067;-73
2023/12/27 03:29:57;;;;;;;1.20;1.10;;;1.50;99.90;;;;;;5093769;28;20495;-73
2023/12/27 03:32:24;;;;;;;1.48;1.20;;;1.50;99.90;;;;;;5093598;28;20040;-73
2023/12/27 03:34:50;;;;;;;1.10;1.00;;;1.50;99.90;;;;;;5093703;28;20383;-74
2023/12/27 03:37:15;;;;;;;1.10;1.00;;;1.50;99.90;;;;;;5093407;28;20502;-72
2023/12/27 03:39:43;;;;;;;1.10;1.00;;;1.50;99.90;;;;;;5093643;28;20111;-74
2023/12/27 03:42:10;;;;;;;1.20;1.10;;;1.60;99.90;;;;;;5093810;28;20075;-71
2023/12/27 03:44:35;;;;;;;;;;;1.50;99.90;;;;;;5092812;28;20134;-73
2023/12/27 03:47:01;;;;;;;1.10;1.00;;;2.30;99.90;;;;;;5093471;28;19963;-71
2023/12/27 03:49:26;;;;;;;1.20;1.10;;;1.50;99.90;;;;;;5094011;28;20047;-73
2023/12/27 03:51:52;;;;;;;1.10;1.00;;;1.50;99.90;;;;;;5093647;28;20539;-73
2023/12/27 03:54:18;;;;;;;1.10;1.00;;;1.50;99.90;;;;;;5093540;28;20036;-72
2023/12/27 03:56:44;;;;;;;1.33;1.23;;;1.50;99.90;;;;;;5094960;28;20047;-73
2023/12/27 03:59:10;;;;;;;1.10;1.00;;;1.50;99.90;;;;;;5097551;28;20051;-72
2023/12/27 04:01:36;;;;;;;3.33;3.08;;;1.50;99.90;;;;;;5097009;28;20036;-72
2023/12/27 04:04:02;;;;;;;2.47;2.28;;;1.40;99.90;;;;;;5097241;28;20036;-73
2023/12/27 04:06:28;;;;;;;1.10;1.00;;;1.50;99.90;;;;;;5096985;28;20484;-73
2023/12/27 04:08:54;;;;;;;1.20;1.10;;;1.50;99.90;;;;;;5097255;28;20124;-74
2023/12/27 04:11:19;;;;;;;1.13;1.02;;;1.40;99.90;;;;;;5097073;28;20067;-73
2023/12/27 04:13:45;;;;;;;1.20;1.10;;;1.50;99.90;;;;;;5097263;28;20048;-74
2023/12/27 04:16:11;;;;;;;1.10;1.00;;;1.40;99.90;;;;;;5097036;28;20046;-73
2023/12/27 04:18:36;;;;;;;1.10;1.00;;;1.60;99.90;;;;;;5096947;28;20132;-73
2023/12/27 04:21:02;;;;;;;1.20;1.10;;;1.60;99.90;;;;;;5096077;28;20048;-73
2023/12/27 04:23:28;;;;;;;1.10;1.00;;;1.50;99.90;;;;;;5094826;28;20039;-73
2023/12/27 04:25:54;;;;;;;1.20;1.10;;;1.50;99.90;;;;;;5094645;28;20383;-73
2023/12/27 04:28:20;;;;;;;1.20;1.10;;;1.60;99.90;;;;;;5094512;28;20044;-73
2023/12/27 04:30:45;;;;;;;1.20;1.10;;;1.50;99.90;;;;;;5094288;28;20135;-73
2023/12/27 04:33:11;;;;;;;1.17;1.08;;;1.50;99.90;;;;;;5094664;28;20418;-73
2023/12/27 04:35:36;;;;;;;1.20;1.10;;;1.50;99.90;;;;;;5094950;28;20032;-74
2023/12/27 04:38:02;;;;;;;1.20;1.10;;;1.50;99.90;;;;;;5096661;28;20487;-73
2023/12/27 04:40:28;;;;;;;1.20;1.10;;;1.50;99.90;;;;;;5097018;28;20066;-75
2023/12/27 04:42:54;;;;;;;1.10;1.00;;;1.50;99.90;;;;;;5095371;28;20372;-72
2023/12/27 04:45:19;;;;;;;1.20;1.10;;;1.40;99.90;;;;;;5096202;28;20528;-72
2023/12/27 04:47:45;;;;;;;1.20;1.10;;;1.50;99.90;;;;;;5096374;28;20282;-73
2023/12/27 04:50:11;;;;;;;1.10;1.00;;;1.50;99.90;;;;;;5096941;28;20372;-72
2023/12/27 04:52:36;;;;;;;1.10;1.00;;;1.50;99.90;;;;;;5096584;28;20032;-74
2023/12/27 04:55:02;;;;;;;1.10;1.00;;;1.50;99.90;;;;;;5096291;28;20039;-73
2023/12/27 04:57:28;;;;;;;1.10;1.00;;;1.50;99.90;;;;;;5096364;28;20047;-73
2023/12/27 04:59:53;;;;;;;1.27;1.17;;;1.50;99.90;;;;;;5096217;28;20044;-73
2023/12/27 05:02:19;;;;;;;1.20;1.10;;;1.50;99.90;;;;;;5096148;28;20119;-73
2023/12/27 05:04:45;;;;;;;1.20;1.10;;;1.50;99.90;;;;;;5096195;28;20522;-73
2023/12/27 05:07:11;;;;;;;1.20;1.10;;;1.60;99.90;;;;;;5095858;28;20040;-74
2023/12/27 05:09:36;;;;;;;1.15;1.05;;;1.50;99.90;;;;;;5096107;28;20418;-74
2023/12/27 05:12:03;;;;;;;1.10;1.00;;;1.50;99.90;;;;;;5095918;28;20035;-73
2023/12/27 05:14:28;;;;;;;1.20;1.10;;;1.60;99.90;;;;;;5095912;28;20047;-72
2023/12/27 05:16:55;;;;;;;1.10;1.00;;;1.60;99.90;;;;;;5095861;28;20082;-72
2023/12/27 05:19:21;;;;;;;1.48;1.38;;;1.60;99.90;;;;;;5095739;28;20051;-72
2023/12/27 05:21:47;;;;;;;1.10;1.00;;;1.60;99.90;;;;;;5095813;28;20036;-73
2023/12/27 05:24:12;;;;;;;1.20;1.10;;;1.60;99.90;;;;;;5095764;28;20085;-73
2023/12/27 05:26:38;;;;;;;1.20;1.10;;;1.60;99.90;;;;;;5095711;28;20043;-72
2023/12/27 05:29:03;;;;;;;1.30;1.20;;;1.60;99.90;;;;;;5095858;28;20376;-73
2023/12/27 05:31:29;;;;;;;1.10;1.00;;;1.60;99.90;;;;;;5095446;28;20043;-72
2023/12/27 05:33:55;;;;;;;1.20;1.10;;;1.60;99.90;;;;;;5096062;28;20105;-72
2023/12/27 05:36:21;;;;;;;1.10;1.00;;;1.60;99.90;;;;;;5095527;28;20036;-74
2023/12/27 05:38:47;;;;;;;1.20;1.10;;;1.60;99.90;;;;;;5095811;28;20076;-73
2023/12/27 05:41:12;;;;;;;1.02;0.95;;;1.70;99.90;;;;;;5095442;28;20036;-75
2023/12/27 05:43:38;;;;;;;1.30;1.20;;;1.70;99.90;;;;;;5095357;28;20394;-71
2023/12/27 05:46:04;;;;;;;1.20;1.10;;;1.70;99.90;;;;;;5095256;28;20093;-74
2023/12/27 05:48:29;;;;;;;1.10;1.00;;;1.70;99.90;;;;;;5095055;28;20048;-71
2023/12/27 05:50:55;;;;;;;1.38;1.27;;;1.80;99.90;;;;;;5095615;28;20043;-73
2023/12/27 05:53:20;;;;;;;1.33;1.23;;;1.80;99.90;;;;;;5095241;28;20043;-72
2023/12/27 05:55:46;;;;;;;1.10;1.00;;;1.90;99.90;;;;;;5095154;28;20118;-72
2023/12/27 05:58:12;;;;;;;1.10;1.00;;;1.90;99.90;;;;;;5077235;28;20472;-72
2023/12/27 06:00:37;;;;;;;1.10;1.00;;;2.00;99.90;;;;;;5095092;28;20455;-72
2023/12/27 06:03:03;;;;;;;1.20;1.10;;;1.90;99.90;;;;;;5095025;28;20036;-72
2023/12/27 06:05:29;;;;;;;1.10;1.00;;;2.00;99.90;;;;;;5095420;28;20046;-75
2023/12/27 06:07:54;;;;;;;1.10;1.00;;;2.00;99.90;;;;;;5094957;28;20105;-73
2023/12/27 06:10:20;;;;;;;1.10;1.00;;;2.00;99.90;;;;;;5094903;28;20036;-73
2023/12/27 06:12:47;;;;;;;1.10;1.00;;;2.00;99.90;;;;;;5094952;28;20549;-74
2023/12/27 06:15:12;;;;;;;1.20;1.10;;;2.00;99.90;;;;;;5094876;28;20376;-74
2023/12/27 06:17:38;;;;;;;1.10;1.00;;;2.10;99.90;;;;;;5094697;28;20040;-72
2023/12/27 06:20:06;;;;;;;1.10;1.00;;;2.10;99.90;;;;;;5094292;28;20051;-74
2023/12/27 06:22:32;;;;;;;1.10;1.00;;;2.20;99.90;;;;;;5094465;28;20040;-73
2023/12/27 06:24:58;;;;;;;1.10;1.00;;;2.20;99.90;;;;;;5094610;28;20118;-74
2023/12/27 06:27:23;;;;;;;1.10;1.00;;;2.20;99.90;;;;;;5094556;28;20037;-73
2023/12/27 06:29:49;;;;;;;1.10;1.00;;;2.30;99.90;;;;;;5094476;28;20040;-72
2023/12/27 06:32:15;;;;;;;1.00;0.95;;;2.30;99.90;;;;;;5094335;28;20717;-72
2023/12/27 06:34:40;;;;;;;1.10;1.00;;;2.30;99.90;;;;;;5094482;28;20040;-72
2023/12/27 06:37:06;;;;;;;1.20;1.10;;;2.40;99.90;;;;;;5094192;28;20040;-73
2023/12/27 06:39:32;;;;;;;0.93;0.90;;;2.40;99.90;;;;;;5094302;28;20048;-75
2023/12/27 06:41:57;;;;;;;1.10;1.00;;;2.40;99.90;;;;;;5094382;28;20379;-73
2023/12/27 06:44:23;;;;;;;1.10;1.00;;;2.40;99.90;;;;;;5094299;28;20044;-73
2023/12/27 06:46:49;;;;;;;1.30;1.20;;;2.40;99.90;;;;;;5094167;28;20391;-75
2023/12/27 06:49:14;;;;;;;1.30;1.20;;;2.50;99.90;;;;;;5094707;28;20134;-71
2023/12/27 06:51:40;;;;;;;1.15;1.05;;;2.50;99.90;;;;;;5094132;28;20468;-74
2023/12/27 06:54:05;;;;;;;1.10;1.00;;;2.50;99.90;;;;;;5094072;28;20036;-74
2023/12/27 06:56:31;;;;;;;2.75;2.55;;;2.50;99.90;;;;;;5094203;28;20032;-71
2023/12/27 06:58:57;;;;;;;1.10;1.00;;;2.50;99.90;;;;;;5094196;28;20067;-74
2023/12/27 07:01:24;;;;;;;3.45;2.65;;;3.60;99.90;;;;;;5094038;28;20486;-73
2023/12/27 07:03:50;;;;;;;1.10;1.00;;;2.50;99.90;;;;;;5094426;28;20032;-73
2023/12/27 07:06:16;;;;;;;1.05;1.00;;;2.60;99.90;;;;;;5094303;28;20040;-74
2023/12/27 07:08:43;;;;;;;1.10;1.00;;;2.60;99.90;;;;;;5094018;28;20099;-73
2023/12/27 07:11:15;;;;;;;0.98;0.90;;;2.60;99.90;;;;;;5093817;28;20048;-72
2023/12/27 07:13:42;;;;;;;1.10;1.00;;;2.60;99.90;;;;;;5093926;28;20048;-71
2023/12/27 07:16:07;;;;;;;1.30;1.20;;;2.60;99.90;;;;;;5093836;28;20426;-70
2023/12/27 07:18:33;;;;;;;1.08;1.00;;;2.70;99.90;;;;;;5093535;28;20127;-70
2023/12/27 07:20:58;;;;;;;1.17;1.08;;;2.70;99.90;;;;;;5094198;28;20059;-73
2023/12/27 07:23:24;;;;;;;0.90;0.90;;;2.70;99.90;;;;;;5093805;28;20116;-77
2023/12/27 07:25:50;;;;;;;0.90;0.90;;;2.70;99.90;;;;;;5093349;28;20051;-73
2023/12/27 07:28:15;;;;;;;1.10;1.00;;;2.70;99.90;;;;;;5093732;28;20059;-71
2023/12/27 07:30:42;;;;;;;1.90;1.80;;;2.80;99.90;;;;;;5095138;28;20040;-71
2023/12/27 07:33:07;;;;;;;0.90;0.90;;;2.80;99.90;;;;;;5097828;28;20032;-70
2023/12/27 07:35:33;;;;;;;1.35;1.25;;;2.80;99.90;;;;;;5098264;28;20093;-72
2023/12/27 07:38:00;;;;;;;1.65;1.55;;;2.80;99.90;;;;;;5097780;28;20108;-71
2023/12/27 07:40:27;;;;;;;1.00;1.00;;;2.80;99.90;;;;;;5097775;28;20529;-70
2023/12/27 07:42:52;;;;;;;1.10;1.00;;;2.80;99.90;;;;;;5097714;28;20050;-73
2023/12/27 07:45:20;;;;;;;1.15;1.05;;;2.90;99.90;;;;;;5097578;28;20032;-72
2023/12/27 07:47:45;;;;;;;1.10;1.00;;;2.90;99.90;;;;;;5097663;28;20054;-72
2023/12/27 07:50:11;;;;;;;1.10;1.00;;;2.90;99.90;;;;;;5097581;28;20040;-73
2023/12/27 07:52:38;;;;;;;1.10;1.00;;;2.90;99.90;;;;;;5097575;28;20047;-75
2023/12/27 07:55:04;;;;;;;1.10;1.00;;;2.90;99.90;;;;;;5096249;28;20092;-73
2023/12/27 07:57:29;;;;;;;0.90;0.90;;;3.00;99.90;;;;;;5097463;28;20384;-79
2023/12/27 07:59:57;;;;;;;1.10;1.00;;;3.00;99.90;;;;;;5097331;28;20044;-84
2023/12/27 08:02:23;;;;;;;1.17;1.08;;;3.20;99.90;;;;;;5096287;28;20044;-80
2023/12/27 08:04:49;;;;;;;1.40;1.30;;;3.10;99.90;;;;;;5096117;28;20039;-74
2023/12/27 08:07:15;;;;;;;1.00;1.00;;;3.10;99.90;;;;;;5097485;28;20531;-72
2023/12/27 08:09:40;;;;;;;1.10;1.00;;;3.10;99.90;;;;;;5097163;28;20491;-82
2023/12/27 08:12:06;;;;;;;1.00;0.90;;;3.10;99.90;;;;;;5097110;28;20063;-74
2023/12/27 08:14:32;;;;;;;1.10;1.00;;;3.10;99.90;;;;;;5097081;28;20048;-75
2023/12/27 08:16:58;;;;;;;1.30;1.20;;;3.20;99.90;;;;;;5097116;28;20115;-77
2023/12/27 08:19:24;;;;;;;1.10;1.00;;;3.20;99.90;;;;;;5097443;28;20133;-71
2023/12/27 08:21:49;;;;;;;1.10;1.02;;;3.20;99.90;;;;;;5097043;28;20062;-75
2023/12/27 08:24:15;;;;;;;1.20;1.10;;;3.30;99.90;;;;;;5097009;28;20066;-74
2023/12/27 08:26:40;;;;;;;0.90;0.90;;;3.40;99.90;;;;;;5096870;28;20036;-76
2023/12/27 08:29:06;;;;;;;0.90;0.90;;;3.30;99.90;;;;;;5096670;28;20028;-74
2023/12/27 08:31:32;;;;;;;1.20;1.10;;;3.30;99.90;;;;;;5096673;28;20032;-75
2023/12/27 08:33:59;;;;;;;0.98;0.98;;;3.40;99.90;;;;;;5097205;28;20432;-75
2023/12/27 08:36:29;;;;;;;0.90;0.90;;;3.40;99.90;;;;;;5096748;28;20043;-73
2023/12/27 08:38:55;;;;;;;1.10;1.00;;;3.40;99.90;;;;;;5096597;28;20043;-76
2023/12/27 08:41:22;;;;;;;0.90;0.90;;;3.40;99.90;;;;;;5096569;28;20428;-75
2023/12/27 08:43:47;;;;;;;1.00;1.00;;;3.50;99.90;;;;;;5095935;28;20075;-76
2023/12/27 08:46:14;;;;;;;1.00;0.95;;;3.50;99.90;;;;;;5096256;28;20090;-75
2023/12/27 08:48:40;;;;;;;;;;;3.50;99.90;;;;;;5096867;28;20051;-75
2023/12/27 08:51:06;;;;;;;1.00;0.90;;;3.50;99.90;;;;;;5096418;28;19923;-75
2023/12/27 08:53:31;;;;;;;1.08;0.98;;;3.50;99.90;;;;;;5096626;28;20042;-75
2023/12/27 08:55:57;;;;;;;1.10;1.00;;;3.60;99.90;;;;;;5096269;28;20047;-74
2023/12/27 08:58:23;;;;;;;0.90;0.90;;;3.60;99.90;;;;;;5096221;28;20039;-76
2023/12/27 09:00:49;;;;;;;0.90;0.90;;;3.60;99.90;;;;;;5094957;28;20079;-75
2023/12/27 09:03:14;;;;;;;0.90;0.90;;;3.60;99.90;;;;;;5096161;28;20048;-80
2023/12/27 09:05:40;;;;;;;0.90;0.90;;;3.60;99.90;;;;;;5096129;28;20080;-76
2023/12/27 09:08:05;;;;;;;1.20;1.10;;;3.70;99.90;;;;;;5096355;28;20048;-77
2023/12/27 09:10:31;;;;;;;1.20;1.10;;;3.70;99.90;;;;;;5096058;28;20123;-74
2023/12/27 09:12:57;;;;;;;0.90;0.90;;;3.70;99.90;;;;;;5094876;28;20040;-74
2023/12/27 09:15:22;;;;;;;1.17;1.08;;;3.70;99.90;;;;;;5095849;28;20119;-73
2023/12/27 09:17:48;;;;;;;1.00;1.00;;;3.70;99.90;;;;;;5096285;28;20086;-73
2023/12/27 09:20:14;;;;;;;1.00;1.00;;;3.80;99.90;;;;;;5096212;28;20063;-73
2023/12/27 09:22:40;;;;;;;1.42;1.20;;;3.90;99.90;;;;;;5095768;28;20483;-76
2023/12/27 09:25:05;;;;;;;1.10;1.00;;;3.80;99.90;;;;;;5095785;28;20071;-75
2023/12/27 09:27:31;;;;;;;1.10;1.00;;;3.80;99.90;;;;;;5095663;28;20033;-77
2023/12/27 09:29:57;;;;;;;1.10;1.00;;;3.90;99.90;;;;;;5095601;28;20028;-74
2023/12/27 09:32:22;;;;;;;1.10;1.00;;;3.90;99.90;;;;;;5095576;28;20096;-75
2023/12/27 09:34:48;;;;;;;2.22;2.05;;;3.90;99.90;;;;;;5095593;28;20036;-77
2023/12/27 09:37:14;;;;;;;1.20;1.10;;;3.90;99.90;;;;;;5095143;28;20040;-74
2023/12/27 09:39:39;;;;;;;1.10;1.00;;;3.90;99.90;;;;;;5095415;28;20048;-74
2023/12/27 09:42:05;;;;;;;1.35;1.25;;;4.00;99.90;;;;;;5095424;28;20514;-72
2023/12/27 09:44:32;;;;;;;0.90;0.90;;;4.00;99.90;;;;;;5095315;28;20040;-74
2023/12/27 09:47:00;;;;;;;0.90;0.90;;;4.00;99.90;;;;;;5095776;28;20043;-71
2023/12/27 09:49:27;;;;;;;1.23;1.13;;;4.10;99.90;;;;;;5095273;28;20036;-75
2023/12/27 09:51:55;;;;;;;0.95;0.90;;;4.10;99.90;;;;;;5095218;28;20361;-77
2023/12/27 09:54:21;;;;;;;0.90;0.90;;;4.10;99.90;;;;;;5094100;28;20506;-74
2023/12/27 09:56:47;;;;;;;0.90;0.90;;;4.10;99.90;;;;;;5095285;28;20075;-72
2023/12/27 09:59:19;;;;;;;0.90;0.90;;;4.10;99.90;;;;;;5094956;28;20040;-73
2023/12/27 10:01:50;;;;;;;0.90;0.90;;;4.20;99.90;;;;;;5095720;28;20043;-74
2023/12/27 10:04:55;;;;;;;1.10;1.00;;;4.20;99.90;;;;;;5094929;28;20040;-75
2023/12/27 10:07:24;;;;;;;1.00;1.00;;;4.20;99.90;;;;;;5094058;28;20384;-73
2023/12/27 10:09:50;;;;;;;0.90;0.90;;;4.30;99.90;;;;;;5095343;28;20044;-73
2023/12/27 10:12:17;;;;;;;4.43;1.80;;;4.30;99.90;;;;;;5094819;28;20040;-74
2023/12/27 10:14:43;;;;;;;1.05;0.95;;;4.30;99.90;;;;;;5094530;28;20040;-80
2023/12/27 10:17:09;;;;;;;1.02;1.00;;;4.30;99.90;;;;;;5094445;28;20560;-71
2023/12/27 10:19:42;;;;;;;1.10;1.00;;;4.40;99.90;;;;;;5094945;28;20130;-76
2023/12/27 10:22:09;;;;;;;0.90;0.90;;;4.40;99.90;;;;;;5093545;28;20047;-75
2023/12/27 10:24:36;;;;;;;0.93;0.93;;;4.50;99.90;;;;;;5094539;28;20364;-79
2023/12/27 10:27:06;;;;;;;2.25;2.15;;;4.50;99.90;;;;;;5094536;28;20040;-77
2023/12/27 10:29:32;;;;;;;1.00;1.00;;;4.50;99.90;;;;;;5094732;28;20426;-74
2023/12/27 10:32:06;;;;;;;1.02;1.00;;;4.50;99.90;;;;;;5094404;28;20043;-84
2023/12/27 10:34:32;;;;;;;1.20;1.10;;;4.60;99.90;;;;;;5094569;28;20032;-78
2023/12/27 10:36:59;;;;;;;0.90;0.90;;;4.60;99.90;;;;;;5094385;28;20126;-75
2023/12/27 10:39:25;;;;;;;0.80;0.80;;;4.60;99.90;;;;;;5094407;28;20194;-75
2023/12/27 10:41:54;;;;;;;1.80;1.70;;;4.60;99.90;;;;;;5094646;28;20046;-80
2023/12/27 10:44:20;;;;;;;0.80;0.80;;;4.70;99.90;;;;;;5094519;28;20051;-73
2023/12/27 10:46:48;;;;;;;0.90;0.90;;;4.70;99.90;;;;;;5094177;28;20472;-76
2023/12/27 10:49:14;;;;;;;0.90;0.90;;;4.70;99.90;;;;;;5094145;28;20051;-76
2023/12/27 10:51:40;;;;;;;1.33;1.23;;;4.70;99.90;;;;;;5094186;28;20680;-74
2023/12/27 10:54:07;;;;;;;1.30;1.20;;;4.70;99.90;;;;;;5094146;28;20044;-74
2023/12/27 10:56:40;;;;;;;0.90;0.90;;;4.70;99.90;;;;;;5092520;28;20062;-74
2023/12/27 10:59:07;;;;;;;0.90;0.90;;;4.70;99.90;;;;;;5093507;28;20048;-75
2023/12/27 11:01:33;;;;;;;;;;;4.90;99.90;;;;;;5094251;28;20123;-73
2023/12/27 11:04:00;;;;;;;1.00;0.90;;;4.70;99.90;;;;;;5093678;28;19923;-76
2023/12/27 11:06:29;;;;;;;1.25;1.15;;;4.80;99.90;;;;;;5093639;28;20054;-75
2023/12/27 11:08:55;;;;;;;1.10;1.00;;;4.80;99.90;;;;;;5093771;28;20384;-76
2023/12/27 11:11:23;;;;;;;1.52;1.38;;;4.80;99.90;;;;;;5093595;28;20039;-74
2023/12/27 11:13:50;;;;;;;0.93;0.93;;;4.80;99.90;;;;;;5093748;28;20403;-77
2023/12/27 11:16:17;;;;;;;2.15;1.02;;;5.80;99.90;;;;;;5093637;28;20051;-76
2023/12/27 11:18:45;;;;;;;0.90;0.90;;;4.80;99.90;;;;;;5093401;28;20106;-78
2023/12/27 11:21:11;;;;;;;1.00;1.00;;;4.80;99.90;;;;;;5093701;28;20127;-75
2023/12/27 11:23:37;;;;;;;0.90;0.90;;;4.80;99.90;;;;;;5093387;28;20139;-76
2023/12/27 11:26:05;;;;;;;1.15;1.05;;;4.80;99.90;;;;;;5093725;28;20089;-78
2023/12/27 11:28:37;;;;;;;1.10;1.00;;;4.80;99.90;;;;;;5093286;28;20390;-78
2023/12/27 11:31:04;;;;;;;0.90;0.90;;;4.90;99.90;;;;;;5093214;28;20441;-77
2023/12/27 11:33:29;;;;;;;;;;;4.90;99.90;;;;;;5094004;28;20430;-78
2023/12/27 11:35:56;;;;;;;2.53;2.33;;;5.50;99.90;;;;;;5093599;28;19974;-77
2023/12/27 11:38:25;;;;;;;0.90;0.90;;;4.90;99.90;;;;;;5093402;28;20115;-77
2023/12/27 11:40:52;;;;;;;1.20;1.10;;;4.90;99.90;;;;;;5093266;28;20044;-77
2023/12/27 11:43:19;;;;;;;;;;;4.90;99.90;;;;;;5101659;28;20376;-73
2023/12/27 11:45:58;;;;;;;1.73;1.63;;;4.90;99.90;;;;;;5093089;28;19920;-76
2023/12/27 11:48:25;;;;;;;2.90;2.45;;;4.90;99.90;;;;;;5093281;28;20044;-72
2023/12/27 11:50:51;;;;;;;0.90;0.90;;;4.90;99.90;;;;;;5093360;28;20055;-75
2023/12/27 11:53:24;;;;;;;1.15;1.05;;;4.90;99.90;;;;;;5093190;28;20040;-78
2023/12/27 11:55:51;;;;;;;0.90;0.90;;;5.00;99.90;;;;;;5093450;28;20051;-74
2023/12/27 11:58:32;;;;;;;1.08;1.00;;;5.10;99.90;;;;;;5093177;28;20043;-74
2023/12/27 12:01:29;;;;;;;1.10;1.00;;;5.00;99.90;;;;;;5093384;28;20044;-73
2023/12/27 12:04:08;;;;;;;1.20;1.10;;;5.00;99.90;;;;;;5093416;28;20101;-79
2023/12/27 12:06:58;;;;;;;1.00;0.90;;;6.10;99.90;;;;;;5093011;28;20048;-76
2023/12/27 12:09:41;;;;;;;1.52;1.42;;;5.10;99.90;;;;;;5093282;28;20118;-73
2023/12/27 12:12:16;;;;;;;2.33;1.95;;;5.10;99.90;;;;;;5093224;28;20094;-75
2023/12/27 12:14:43;;;;;;;1.42;1.33;;;5.90;99.90;;;;;;5093247;28;20097;-75
2023/12/27 12:17:09;;;;;;;0.97;0.90;;;5.10;99.90;;;;;;5092065;28;20127;-75
2023/12/27 12:19:38;;;;;;;0.90;0.90;;;5.20;99.90;;;;;;5096696;28;20336;-77
2023/12/27 12:22:05;;;;;;;1.25;1.15;;;5.90;99.90;;;;;;5096485;28;20047;-77
2023/12/27 12:24:32;;;;;;;1.05;0.98;;;5.20;99.90;;;;;;5095625;28;20118;-76
2023/12/27 12:26:59;;;;;;;1.10;1.00;;;5.30;99.90;;;;;;5096738;28;20048;-77
2023/12/27 12:29:25;;;;;;;1.20;1.10;;;5.30;99.90;;;;;;5096706;28;20131;-78
2023/12/27 12:31:54;;;;;;;1.10;1.00;;;5.30;99.90;;;;;;5095278;28;20418;-77
2023/12/27 12:34:20;;;;;;;1.55;1.45;;;5.30;99.90;;;;;;5096570;28;20345;-78
2023/12/27 12:36:46;;;;;;;1.20;1.10;;;5.40;99.90;;;;;;5096488;28;20086;-77
2023/12/27 12:39:14;;;;;;;0.90;0.90;;;5.30;99.90;;;;;;5096209;28;20050;-77
2023/12/27 12:41:40;;;;;;;1.48;1.38;;;5.40;99.90;;;;;;5096268;28;20042;-78
2023/12/27 12:44:12;;;;;;;1.10;1.00;;;5.40;99.90;;;;;;5096098;28;20480;-75
2023/12/27 12:46:39;;;;;;;1.20;1.10;;;5.40;99.90;;;;;;5096237;28;20044;-78
2023/12/27 12:49:06;;;;;;;1.30;1.20;;;5.40;99.90;;;;;;5096196;28;20040;-75
2023/12/27 12:51:32;;;;;;;1.77;1.52;;;5.40;99.90;;;;;;5095757;28;20468;-77
2023/12/27 12:53:58;;;;;;;1.33;1.20;;;5.50;99.90;;;;;;5096266;28;20040;-77